Alfredo Rodriguez Ballon International Airport
SPQU : now visible

Airfield :











YOU CAN JOIN US ON...

 
LOGIN :

Register | Disclaimer

   EN    FR    IT 

 









Legend :    VFR   Marginal VFR   IFR   Intensive IFR   Very Intensive IFR
Visi :
Ceiling :
>= 8 km
>= 3000ft
5 to 8 km
1000 to 3000 ft
1500m to 5 km
500 to 1000 ft
800 to 1500m
200 to 500 ft
< 800m
< 200 ft
Symbols :   Thunderstorms  Fog  Heavy snow  Heavy precipitations  Wind > 20 kt






- Airport Elevation : 8405 ft
- IATA code : AQP


SPQU - Alfredo Rodriguez Ballon International

CURRENT METAR :
  • 091700Z 27009KT 220V300 CAVOK 22/09 Q1027 NOSIG RMK PP000

EXPIRED METARs :
  • 091600Z 26008KT 220V310 CAVOK 22/09 Q1028 NOSIG RMK PP000
  • 091500Z 26006KT 190V280 CAVOK 21/07 Q1028 NOSIG RMK PP000

TAF TAF SPQU
Valid from the 09 at 18:00 until the 10 at 18:00 UTC


091700Z 0918/1018 25010KT 9999 SCT080 TX22/0918Z TN11/1011Z
FM092100 22008KT 9999 SCT060
FM100800 05005KT 9999 SCT100



MET'MAP, your aeronautical weather chart ! - Copyright ORBIFLY December 2007 - Disclaimer

ORBIFLY MET'MAP TEAM :

Programming & Development : Alexandra Zaïnal
Concept & original design : Baudouin d'Aumeries
Assistance for programming : Marc-Olivier Méhu
Technical & hardware support : Manuel Goepfert

Contact : metmap@orbifly.com




SOURCES & CREDITS :

   NOAA       Earth
Advisory